createdAt,value
2023-05-18T00:00:31.672Z,36.79
2023-05-18T00:05:34.684Z,36.92
2023-05-18T00:10:38.046Z,36.81
2023-05-18T00:15:39.927Z,36.97
2023-05-18T00:20:43.831Z,37.17
2023-05-18T00:25:45.783Z,37.20
2023-05-18T00:30:47.774Z,37.13
2023-05-18T00:35:49.766Z,37.04
2023-05-18T00:40:51.695Z,37.25
2023-05-18T00:45:53.701Z,37.14
2023-05-18T00:50:56.110Z,37.46
2023-05-18T00:55:58.702Z,37.67
2023-05-18T01:01:02.954Z,37.92
2023-05-18T01:06:06.852Z,38.21
2023-05-18T01:11:23.711Z,38.22
2023-05-18T01:16:34.296Z,38.35
2023-05-18T01:22:04.295Z,38.53
2023-05-18T01:27:08.248Z,38.84
2023-05-18T01:32:10.847Z,38.76
2023-05-18T01:37:12.883Z,38.89
2023-05-18T01:42:24.433Z,38.87
2023-05-18T01:47:30.642Z,38.62
2023-05-18T01:52:44.676Z,38.73
2023-05-18T01:57:49.996Z,39.12
2023-05-18T02:02:53.216Z,38.88
2023-05-18T02:07:55.184Z,38.98
2023-05-18T02:12:57.235Z,39.24
2023-05-18T02:17:59.330Z,39.42
2023-05-18T02:23:01.327Z,39.56
2023-05-18T02:28:03.650Z,39.58
2023-05-18T02:33:05.688Z,40.11
2023-05-18T02:38:07.591Z,40.99
2023-05-18T02:43:09.697Z,41.20
2023-05-18T02:48:11.619Z,41.06
2023-05-18T02:53:13.646Z,41.07
2023-05-18T02:58:16.268Z,41.35
2023-05-18T03:03:36.059Z,41.82
2023-05-18T03:08:38.030Z,41.96
2023-05-18T03:13:40.057Z,41.83
2023-05-18T03:18:42.381Z,41.86
2023-05-18T03:23:45.533Z,41.55
2023-05-18T03:28:47.471Z,41.57
2023-05-18T03:33:50.295Z,41.97
2023-05-18T03:38:52.257Z,41.80
2023-05-18T03:43:54.255Z,42.07
2023-05-18T03:48:58.076Z,42.07
2023-05-18T03:54:08.286Z,42.00
2023-05-18T03:59:11.254Z,42.39
2023-05-18T04:04:18.190Z,42.52
2023-05-18T04:09:21.948Z,42.55
2023-05-18T04:14:24.887Z,42.63
2023-05-18T04:19:27.006Z,42.20
2023-05-18T04:24:28.963Z,42.54
2023-05-18T04:29:31.201Z,42.53
2023-05-18T04:34:38.426Z,42.29
2023-05-18T04:39:42.409Z,42.71
2023-05-18T04:44:49.000Z,42.51
2023-05-18T04:49:54.451Z,42.64
2023-05-18T04:54:56.654Z,42.95
2023-05-18T04:59:58.742Z,42.71
2023-05-18T05:05:00.824Z,42.82
2023-05-18T05:10:04.148Z,42.29
2023-05-18T05:15:06.676Z,42.58
2023-05-18T05:20:09.223Z,42.46
2023-05-18T05:25:11.815Z,42.57
2023-05-18T05:30:14.474Z,42.27
2023-05-18T05:35:18.362Z,42.29
2023-05-18T05:40:21.946Z,42.10
2023-05-18T05:45:28.631Z,42.05
2023-05-18T05:50:35.299Z,42.14
2023-05-18T05:55:41.436Z,41.85
2023-05-18T06:00:47.521Z,42.01
2023-05-18T06:05:50.353Z,41.73
2023-05-18T06:10:55.709Z,41.63
2023-05-18T06:15:58.880Z,41.54
2023-05-18T06:21:01.436Z,41.10
2023-05-18T06:26:04.334Z,40.94
2023-05-18T06:31:06.581Z,40.87
2023-05-18T06:36:20.490Z,40.53
2023-05-18T06:41:22.530Z,40.29
2023-05-18T06:46:26.640Z,39.96
2023-05-18T06:51:43.993Z,39.79
2023-05-18T06:56:47.354Z,39.48
2023-05-18T07:01:50.722Z,39.14
2023-05-18T07:06:56.038Z,38.86
2023-05-18T07:11:58.035Z,38.87
2023-05-18T07:16:59.950Z,38.55
2023-05-18T07:22:01.966Z,38.52
2023-05-18T07:27:04.194Z,38.23
2023-05-18T07:32:06.221Z,38.11
2023-05-18T07:37:08.396Z,37.78
2023-05-18T07:42:11.374Z,37.39
2023-05-18T07:47:13.385Z,37.21
2023-05-18T07:52:15.391Z,37.14
2023-05-18T07:57:17.380Z,36.84
2023-05-18T08:02:20.122Z,35.97
2023-05-18T08:07:22.389Z,35.51
2023-05-18T08:12:24.812Z,35.66
2023-05-18T08:17:26.902Z,35.32
2023-05-18T08:22:28.842Z,35.35
2023-05-18T08:27:31.215Z,35.37
2023-05-18T08:32:33.249Z,35.09
2023-05-18T08:37:38.351Z,35.42
2023-05-18T08:42:57.509Z,35.21
2023-05-18T08:48:01.693Z,35.21
2023-05-18T08:53:06.532Z,35.17
2023-05-18T08:58:09.551Z,35.18
2023-05-18T09:03:11.800Z,34.99
2023-05-18T09:08:14.151Z,34.93
2023-05-18T09:13:20.784Z,34.60
2023-05-18T09:18:24.951Z,34.34
2023-05-18T09:23:28.187Z,34.51
2023-05-18T09:28:37.148Z,34.64
2023-05-18T09:33:40.274Z,34.59
2023-05-18T09:38:46.313Z,34.86
2023-05-18T09:43:49.068Z,34.50
2023-05-18T09:48:53.251Z,34.15
2023-05-18T09:53:56.886Z,34.21
2023-05-18T09:59:07.903Z,33.97
2023-05-18T10:04:09.938Z,33.91
2023-05-18T10:09:16.682Z,33.77
2023-05-18T10:14:23.508Z,33.55
2023-05-18T10:19:26.402Z,33.45
2023-05-18T10:24:29.789Z,33.25
2023-05-18T10:29:34.077Z,33.13
2023-05-18T10:34:37.066Z,33.32
2023-05-18T10:39:45.323Z,33.06
2023-05-18T10:44:48.229Z,33.09
2023-05-18T10:49:50.646Z,33.08
2023-05-18T10:54:53.748Z,33.00
2023-05-18T10:59:55.880Z,32.72
2023-05-18T11:04:57.849Z,32.80
2023-05-18T11:10:01.904Z,32.71
2023-05-18T11:15:05.462Z,32.46
2023-05-18T11:20:11.932Z,32.29
2023-05-18T11:25:26.084Z,32.29
2023-05-18T11:30:29.189Z,31.86
2023-05-18T11:35:31.379Z,31.88
2023-05-18T11:40:47.116Z,31.79
2023-05-18T11:45:58.892Z,31.37
2023-05-18T11:51:01.545Z,31.27
2023-05-18T11:56:03.602Z,31.23
2023-05-18T12:01:06.889Z,31.08
2023-05-18T12:06:08.958Z,30.97
2023-05-18T12:11:13.626Z,30.94
2023-05-18T12:16:15.884Z,30.63
2023-05-18T12:21:22.389Z,30.46
2023-05-18T12:26:26.147Z,30.58
2023-05-18T12:31:28.461Z,30.67
2023-05-18T12:36:30.738Z,30.76
2023-05-18T12:41:32.622Z,30.85
2023-05-18T12:46:34.583Z,30.78
2023-05-18T12:51:38.401Z,30.68
2023-05-18T12:56:53.175Z,30.47
2023-05-18T13:01:56.755Z,30.45
2023-05-18T13:06:58.953Z,30.37
2023-05-18T13:12:07.584Z,30.14
2023-05-18T13:17:10.077Z,30.20
2023-05-18T13:22:15.702Z,30.03
2023-05-18T13:27:17.628Z,29.97
2023-05-18T13:32:19.547Z,29.78
2023-05-18T13:37:21.412Z,30.01
2023-05-18T13:42:23.477Z,29.83
2023-05-18T13:47:25.365Z,29.61
2023-05-18T13:52:27.424Z,29.68
2023-05-18T13:57:30.878Z,29.82
2023-05-18T14:02:32.798Z,29.91
2023-05-18T14:07:38.934Z,29.68
2023-05-18T14:12:43.987Z,29.78
2023-05-18T14:17:46.222Z,29.53
2023-05-18T14:22:48.269Z,29.68
2023-05-18T14:27:50.177Z,29.86
2023-05-18T14:32:52.244Z,29.66
2023-05-18T14:37:54.170Z,29.95
2023-05-18T14:42:56.087Z,29.82
2023-05-18T14:47:57.978Z,29.63
2023-05-18T14:52:59.977Z,29.59
2023-05-18T14:58:04.606Z,29.54
2023-05-18T15:03:06.766Z,29.50
2023-05-18T15:08:08.874Z,29.75
2023-05-18T15:13:10.878Z,29.88
2023-05-18T15:18:12.834Z,29.89
2023-05-18T15:23:14.842Z,29.81
2023-05-18T15:28:16.746Z,29.92
2023-05-18T15:33:18.940Z,29.82
2023-05-18T15:38:21.012Z,29.89
2023-05-18T15:43:24.127Z,30.13
2023-05-18T15:48:26.128Z,29.76
2023-05-18T15:53:28.084Z,29.84
2023-05-18T15:58:30.232Z,29.84
2023-05-18T16:03:32.377Z,29.84
2023-05-18T16:08:34.385Z,29.96
2023-05-18T16:13:36.361Z,29.95
2023-05-18T16:18:38.341Z,29.95
2023-05-18T16:23:40.323Z,30.22
2023-05-18T16:28:42.193Z,30.26
2023-05-18T16:33:44.104Z,30.57
2023-05-18T16:38:46.071Z,30.52
2023-05-18T16:43:48.073Z,30.59
2023-05-18T16:48:50.103Z,30.41
2023-05-18T16:53:52.868Z,30.19
2023-05-18T16:58:54.885Z,30.19
2023-05-18T17:03:57.446Z,30.04
2023-05-18T17:08:59.478Z,29.88
2023-05-18T17:14:01.705Z,29.79
2023-05-18T17:19:04.452Z,29.90
2023-05-18T17:24:06.749Z,29.81
2023-05-18T17:29:08.649Z,29.70
2023-05-18T17:34:10.587Z,30.18
2023-05-18T17:39:12.808Z,29.93
2023-05-18T17:44:14.728Z,30.15
2023-05-18T17:49:16.622Z,30.21
2023-05-18T17:54:18.558Z,30.23
2023-05-18T17:59:20.673Z,30.23
2023-05-18T18:04:22.817Z,30.33
2023-05-18T18:09:24.958Z,30.28
2023-05-18T18:14:26.856Z,30.31
2023-05-18T18:19:28.864Z,30.43
2023-05-18T18:24:30.921Z,30.72
2023-05-18T18:29:32.950Z,30.83
2023-05-18T18:34:34.884Z,30.99
2023-05-18T18:39:36.954Z,31.10
2023-05-18T18:44:38.862Z,31.19
2023-05-18T18:49:40.729Z,31.29
2023-05-18T18:54:42.699Z,31.38
2023-05-18T18:59:44.565Z,31.32
2023-05-18T19:04:46.482Z,31.30
2023-05-18T19:09:50.461Z,31.42
2023-05-18T19:14:52.329Z,31.48
2023-05-18T19:19:54.449Z,31.62
2023-05-18T19:24:56.651Z,31.54
2023-05-18T19:30:00.838Z,31.79
2023-05-18T19:35:04.363Z,31.88
2023-05-18T19:40:07.286Z,31.83
2023-05-18T19:45:09.602Z,32.10
2023-05-18T19:50:12.495Z,32.11
2023-05-18T19:55:14.517Z,32.36
2023-05-18T20:00:16.874Z,32.13
2023-05-18T20:05:19.034Z,32.50
2023-05-18T20:10:21.110Z,32.74
2023-05-18T20:15:23.124Z,32.54
2023-05-18T20:20:30.446Z,32.62
2023-05-18T20:25:35.323Z,32.84
2023-05-18T20:30:37.395Z,33.07
2023-05-18T20:35:39.625Z,33.19
2023-05-18T20:40:41.836Z,33.20
2023-05-18T20:45:49.296Z,33.42
2023-05-18T20:50:52.250Z,33.63
2023-05-18T20:55:54.413Z,33.90
2023-05-18T21:00:56.315Z,33.65
2023-05-18T21:05:58.445Z,33.96
2023-05-18T21:11:00.697Z,34.09
2023-05-18T21:16:02.718Z,34.08
2023-05-18T21:21:05.043Z,34.36
2023-05-18T21:26:06.919Z,34.43
2023-05-18T21:31:08.815Z,34.71
2023-05-18T21:36:10.709Z,34.81
2023-05-18T21:41:12.600Z,34.77
2023-05-18T21:46:14.501Z,34.83
2023-05-18T21:51:17.399Z,35.00
2023-05-18T21:56:19.360Z,35.26
2023-05-18T22:01:23.439Z,35.45
2023-05-18T22:06:25.427Z,35.39
2023-05-18T22:11:27.389Z,35.69
2023-05-18T22:16:29.239Z,35.67
2023-05-18T22:21:31.244Z,35.64
2023-05-18T22:26:33.126Z,35.90
2023-05-18T22:31:35.042Z,36.05
2023-05-18T22:36:37.077Z,36.25
2023-05-18T22:41:38.959Z,36.50
2023-05-18T22:46:40.978Z,36.39
2023-05-18T22:51:42.900Z,36.83
2023-05-18T22:56:44.789Z,36.97
2023-05-18T23:01:47.844Z,36.91
2023-05-18T23:06:50.948Z,36.85
2023-05-18T23:11:53.884Z,36.87
2023-05-18T23:16:58.396Z,36.94
2023-05-18T23:22:00.722Z,37.15
2023-05-18T23:27:02.614Z,37.14
2023-05-18T23:32:05.012Z,37.31
2023-05-18T23:37:10.698Z,37.28
2023-05-18T23:42:12.932Z,37.36
2023-05-18T23:47:16.113Z,37.62
2023-05-18T23:52:20.111Z,37.65
2023-05-18T23:57:25.150Z,37.88
